createdAt,value
2022-11-26T00:00:55.890Z,9.67
2022-11-26T00:03:23.806Z,9.20
2022-11-26T00:05:55.235Z,10.43
2022-11-26T00:08:27.358Z,10.47
2022-11-26T00:10:55.675Z,10.87
2022-11-26T00:13:27.163Z,11.27
2022-11-26T00:15:55.518Z,9.40
2022-11-26T00:18:26.454Z,10.70
2022-11-26T00:20:56.961Z,11.43
2022-11-26T00:23:26.750Z,9.57
2022-11-26T00:25:57.427Z,11.93
2022-11-26T00:28:32.981Z,10.37
2022-11-26T00:31:03.814Z,13.00
2022-11-26T00:33:32.258Z,9.43
2022-11-26T00:36:04.414Z,12.07
2022-11-26T00:38:32.535Z,12.60
2022-11-26T00:41:00.916Z,12.67
2022-11-26T00:43:30.094Z,10.33
2022-11-26T00:45:57.945Z,11.37
2022-11-26T00:48:25.838Z,13.73
2022-11-26T00:50:53.723Z,8.43
2022-11-26T00:53:24.536Z,12.77
2022-11-26T00:55:52.433Z,8.33
2022-11-26T00:58:24.277Z,8.83
2022-11-26T01:00:54.647Z,12.80
2022-11-26T01:03:23.116Z,17.20
2022-11-26T01:05:52.077Z,11.80
2022-11-26T01:08:27.385Z,12.37
2022-11-26T01:10:55.235Z,14.17
2022-11-26T01:13:23.099Z,15.53
2022-11-26T01:15:50.913Z,12.77
2022-11-26T01:18:21.634Z,9.53
2022-11-26T01:20:49.692Z,11.77
2022-11-26T01:23:19.131Z,14.07
2022-11-26T01:25:48.075Z,13.83
2022-11-26T01:28:18.730Z,11.63
2022-11-26T01:30:47.072Z,13.40
2022-11-26T01:33:14.892Z,9.73
2022-11-26T01:35:44.073Z,11.43
2022-11-26T01:38:15.079Z,12.13
2022-11-26T01:41:02.499Z,11.70
2022-11-26T01:43:33.810Z,14.30
2022-11-26T01:46:01.746Z,8.47
2022-11-26T01:48:32.824Z,19.70
2022-11-26T01:51:04.915Z,15.73
2022-11-26T01:53:41.038Z,14.30
2022-11-26T01:56:21.720Z,8.30
2022-11-26T01:58:55.396Z,13.43
2022-11-26T02:01:24.042Z,11.87
2022-11-26T02:04:01.302Z,12.43
2022-11-26T02:06:34.359Z,14.63
2022-11-26T02:09:04.440Z,15.97
2022-11-26T02:11:32.901Z,18.50
2022-11-26T02:14:03.973Z,13.73
2022-11-26T02:16:47.942Z,14.87
2022-11-26T02:19:46.258Z,16.40
2022-11-26T02:22:33.957Z,11.40
2022-11-26T02:25:13.254Z,14.00
2022-11-26T02:28:13.202Z,15.70
2022-11-26T02:30:46.038Z,18.97
2022-11-26T02:33:19.001Z,13.83
2022-11-26T02:35:48.764Z,12.60
2022-11-26T02:38:20.371Z,11.90
2022-11-26T02:40:48.546Z,14.20
2022-11-26T02:43:17.593Z,11.13
2022-11-26T02:45:50.385Z,14.20
2022-11-26T02:48:22.100Z,16.63
2022-11-26T02:50:54.607Z,18.00
2022-11-26T02:53:24.608Z,16.60
2022-11-26T02:56:01.924Z,15.87
2022-11-26T02:58:30.184Z,15.50
2022-11-26T03:01:01.035Z,18.80
2022-11-26T03:03:33.033Z,14.60
2022-11-26T03:06:06.610Z,14.23
2022-11-26T03:08:34.952Z,14.60
2022-11-26T03:11:02.741Z,13.20
2022-11-26T03:13:30.616Z,13.53
2022-11-26T03:15:59.803Z,14.73
2022-11-26T03:18:27.620Z,14.43
2022-11-26T03:20:55.414Z,15.83
2022-11-26T03:23:23.345Z,19.47
2022-11-26T03:25:51.143Z,18.63
2022-11-26T03:28:18.930Z,17.67
2022-11-26T03:30:46.801Z,15.07
2022-11-26T03:33:15.929Z,16.33
2022-11-26T03:35:44.148Z,13.57
2022-11-26T03:38:12.288Z,17.67
2022-11-26T03:40:40.093Z,18.43
2022-11-26T03:43:07.914Z,14.00
2022-11-26T03:45:35.764Z,17.50
2022-11-26T03:48:03.643Z,14.97
2022-11-26T03:50:32.724Z,19.60
2022-11-26T03:53:00.530Z,17.20
2022-11-26T03:55:28.390Z,16.53
2022-11-26T03:57:56.234Z,9.63
2022-11-26T04:00:24.077Z,14.60
2022-11-26T04:02:52.965Z,17.30
2022-11-26T04:05:20.802Z,17.00
2022-11-26T04:07:50.018Z,14.70
2022-11-26T04:10:18.043Z,15.23
2022-11-26T04:12:45.829Z,19.67
2022-11-26T04:15:13.733Z,18.30
2022-11-26T04:17:41.497Z,13.33
2022-11-26T04:20:10.487Z,17.57
2022-11-26T04:22:38.392Z,16.20
2022-11-26T04:25:08.248Z,22.27
2022-11-26T04:27:36.020Z,13.83
2022-11-26T04:30:04.774Z,16.97
2022-11-26T04:32:32.549Z,16.13
2022-11-26T04:35:00.365Z,19.93
2022-11-26T04:37:28.114Z,32.23
2022-11-26T04:39:55.866Z,14.70
2022-11-26T04:42:25.005Z,19.73
2022-11-26T04:44:52.774Z,17.87
2022-11-26T04:47:20.572Z,17.20
2022-11-26T04:49:48.378Z,18.20
2022-11-26T04:52:16.222Z,16.63
2022-11-26T04:54:44.019Z,16.37
2022-11-26T04:57:11.864Z,19.87
2022-11-26T04:59:41.000Z,18.20
2022-11-26T05:02:08.910Z,16.70
2022-11-26T05:04:37.136Z,20.07
2022-11-26T05:07:05.778Z,21.87
2022-11-26T05:09:33.570Z,18.77
2022-11-26T05:12:01.345Z,20.93
2022-11-26T05:14:29.150Z,24.33
2022-11-26T05:16:58.369Z,22.90
2022-11-26T05:19:26.308Z,21.67
2022-11-26T05:21:54.081Z,21.20
2022-11-26T05:24:21.901Z,18.53
2022-11-26T05:26:55.186Z,20.00
2022-11-26T05:29:24.577Z,20.30
2022-11-26T05:31:52.511Z,22.30
2022-11-26T05:34:21.999Z,23.97
2022-11-26T05:36:49.754Z,23.10
2022-11-26T05:39:17.516Z,19.20
2022-11-26T05:41:45.320Z,21.20
2022-11-26T05:44:13.098Z,18.07
2022-11-26T05:46:42.900Z,20.77
2022-11-26T05:49:10.738Z,20.47
2022-11-26T05:51:39.814Z,25.13
2022-11-26T05:54:07.776Z,18.77
2022-11-26T05:56:35.783Z,24.37
2022-11-26T05:59:03.535Z,22.30
2022-11-26T06:01:31.410Z,23.27
2022-11-26T06:03:59.207Z,26.60
2022-11-26T06:06:27.095Z,22.67
2022-11-26T06:08:56.212Z,29.10
2022-11-26T06:11:23.974Z,21.93
2022-11-26T06:13:51.726Z,26.50
2022-11-26T06:16:19.587Z,24.20
2022-11-26T06:18:47.363Z,25.67
2022-11-26T06:21:15.274Z,22.80
2022-11-26T06:23:50.587Z,21.63
2022-11-26T06:26:23.576Z,26.10
2022-11-26T06:28:51.327Z,23.07
2022-11-26T06:31:19.142Z,25.43
2022-11-26T06:33:47.010Z,29.17
2022-11-26T06:36:15.140Z,27.17
2022-11-26T06:38:42.990Z,25.83
2022-11-26T06:41:10.822Z,27.27
2022-11-26T06:43:39.989Z,28.43
2022-11-26T06:46:10.242Z,23.63
2022-11-26T06:48:39.093Z,30.07
2022-11-26T06:51:09.054Z,27.87
2022-11-26T06:53:36.998Z,26.50
2022-11-26T06:56:07.037Z,25.20
2022-11-26T06:58:35.233Z,26.47
2022-11-26T07:01:10.425Z,21.80
2022-11-26T07:03:38.947Z,24.53
2022-11-26T07:06:07.315Z,24.47
2022-11-26T07:08:35.137Z,23.73
2022-11-26T07:11:04.261Z,22.90
2022-11-26T07:13:32.119Z,21.47
2022-11-26T07:16:03.767Z,23.50
2022-11-26T07:18:33.034Z,21.90
2022-11-26T07:21:05.873Z,20.63
2022-11-26T07:23:33.807Z,24.33
2022-11-26T07:26:02.462Z,20.30
2022-11-26T07:28:30.667Z,23.30
2022-11-26T07:31:01.924Z,23.43
2022-11-26T07:33:30.161Z,28.83
2022-11-26T07:36:01.795Z,20.80
2022-11-26T07:38:30.480Z,27.07
2022-11-26T07:41:04.707Z,19.47
2022-11-26T07:43:34.686Z,23.57
2022-11-26T07:46:02.732Z,22.23
2022-11-26T07:48:31.228Z,19.07
2022-11-26T07:51:01.320Z,24.30
2022-11-26T07:53:29.364Z,23.60
2022-11-26T07:55:57.221Z,23.03
2022-11-26T07:58:25.297Z,28.60
2022-11-26T08:00:54.923Z,28.10
2022-11-26T08:03:23.215Z,24.33
2022-11-26T08:05:51.088Z,23.33
2022-11-26T08:08:20.237Z,20.93
2022-11-26T08:10:48.078Z,19.77
2022-11-26T08:13:15.840Z,26.13
2022-11-26T08:15:43.669Z,19.83
2022-11-26T08:18:11.908Z,24.10
2022-11-26T08:20:39.658Z,18.70
2022-11-26T08:23:07.448Z,18.80
2022-11-26T08:25:38.996Z,21.40
2022-11-26T08:28:12.930Z,20.83
2022-11-26T08:30:40.727Z,28.23
2022-11-26T08:33:08.608Z,23.90
2022-11-26T08:36:04.986Z,22.33
2022-11-26T08:38:25.038Z,25.53
2022-11-26T08:40:54.739Z,17.80
2022-11-26T08:43:34.517Z,21.73
2022-11-26T08:46:11.920Z,18.77
2022-11-26T08:48:40.287Z,24.70
2022-11-26T08:51:10.363Z,21.20
2022-11-26T08:53:38.677Z,19.97
2022-11-26T08:56:11.610Z,20.70
2022-11-26T08:58:40.949Z,25.20
2022-11-26T09:01:09.997Z,19.63
2022-11-26T09:03:38.058Z,20.60
2022-11-26T09:06:07.427Z,22.50
2022-11-26T09:08:45.015Z,21.60
2022-11-26T09:11:14.215Z,18.27
2022-11-26T09:13:42.004Z,19.13
2022-11-26T09:16:09.882Z,23.70
2022-11-26T09:18:37.722Z,23.10
2022-11-26T09:21:06.109Z,20.50
2022-11-26T09:23:33.858Z,16.90
2022-11-26T09:26:01.615Z,21.40
2022-11-26T09:28:30.811Z,18.93
2022-11-26T09:30:58.846Z,23.73
2022-11-26T09:33:27.263Z,27.00
2022-11-26T09:35:55.418Z,23.60
2022-11-26T09:38:23.253Z,20.83
2022-11-26T09:40:58.831Z,21.07
2022-11-26T09:43:35.087Z,22.83
2022-11-26T09:46:03.152Z,22.43
2022-11-26T09:48:33.432Z,21.53
2022-11-26T09:51:04.847Z,26.87
2022-11-26T09:53:37.519Z,26.23
2022-11-26T09:56:06.066Z,20.33
2022-11-26T09:58:41.362Z,22.23
2022-11-26T10:01:17.726Z,20.97
2022-11-26T10:03:45.773Z,22.07
2022-11-26T10:06:27.511Z,20.10
2022-11-26T10:09:10.977Z,19.20
2022-11-26T10:11:48.083Z,18.83
2022-11-26T10:14:33.552Z,19.70
2022-11-26T10:17:14.135Z,18.00
2022-11-26T10:19:50.635Z,18.40
2022-11-26T10:22:24.084Z,22.67
2022-11-26T10:24:52.649Z,20.67
2022-11-26T10:27:21.667Z,21.60
2022-11-26T10:29:55.425Z,18.13
2022-11-26T10:32:27.115Z,16.57
2022-11-26T10:34:57.466Z,17.27
2022-11-26T10:37:27.824Z,16.80
2022-11-26T10:40:03.165Z,16.67
2022-11-26T10:42:42.053Z,20.10
2022-11-26T10:45:19.639Z,19.33
2022-11-26T10:47:47.536Z,22.63
2022-11-26T10:50:46.665Z,23.00
2022-11-26T10:53:20.988Z,18.60
2022-11-26T10:55:49.320Z,21.53
2022-11-26T10:58:21.954Z,25.47
2022-11-26T11:01:00.242Z,15.53
2022-11-26T11:03:59.844Z,20.10
2022-11-26T11:06:36.585Z,21.33
2022-11-26T11:09:25.029Z,17.27
2022-11-26T11:12:17.727Z,20.27
2022-11-26T11:14:47.095Z,17.63
2022-11-26T11:17:33.766Z,19.03
2022-11-26T11:20:09.201Z,13.87
2022-11-26T11:22:37.026Z,18.17
2022-11-26T11:25:05.164Z,21.27
2022-11-26T11:27:41.133Z,23.00
2022-11-26T11:30:24.880Z,18.57
2022-11-26T11:32:56.557Z,20.00
2022-11-26T11:35:26.570Z,25.43
2022-11-26T11:37:55.994Z,22.67
2022-11-26T11:40:28.799Z,24.60
2022-11-26T11:43:00.116Z,19.10
2022-11-26T11:45:33.392Z,19.00
2022-11-26T11:48:16.798Z,17.13
2022-11-26T11:50:51.845Z,23.03
2022-11-26T11:53:33.516Z,20.90
2022-11-26T11:56:15.887Z,21.30
2022-11-26T11:59:15.231Z,16.07
2022-11-26T12:02:00.746Z,15.77
2022-11-26T12:04:57.027Z,21.13
2022-11-26T12:07:36.499Z,18.20
2022-11-26T12:10:12.737Z,18.30
2022-11-26T12:12:45.103Z,16.00
2022-11-26T12:15:22.451Z,22.97
2022-11-26T12:17:55.575Z,17.60
2022-11-26T12:20:30.803Z,20.40
2022-11-26T12:23:12.952Z,15.60
2022-11-26T12:25:42.093Z,15.93
2022-11-26T12:28:14.987Z,17.10
2022-11-26T12:30:49.513Z,18.90
2022-11-26T12:33:21.651Z,16.47
2022-11-26T12:35:54.494Z,19.30
2022-11-26T12:38:27.882Z,19.97
2022-11-26T12:41:01.158Z,20.00
2022-11-26T12:43:46.132Z,16.10
2022-11-26T12:46:20.572Z,14.90
2022-11-26T12:48:55.062Z,16.87
2022-11-26T12:51:32.970Z,17.40
2022-11-26T12:54:11.866Z,16.57
2022-11-26T12:56:46.325Z,21.47
2022-11-26T12:59:21.542Z,16.00
2022-11-26T13:01:49.457Z,19.93
2022-11-26T13:07:19.953Z,20.63
2022-11-26T13:10:09.178Z,16.07
2022-11-26T13:12:46.743Z,19.20
2022-11-26T13:15:21.906Z,16.87
2022-11-26T13:17:51.135Z,17.13
2022-11-26T13:20:36.297Z,17.40
2022-11-26T13:23:27.237Z,17.83
2022-11-26T13:26:11.800Z,23.73
2022-11-26T13:28:53.592Z,17.67
2022-11-26T13:31:36.759Z,14.03
2022-11-26T13:34:30.803Z,21.67
2022-11-26T13:37:30.073Z,15.83
2022-11-26T13:40:31.610Z,14.70
2022-11-26T13:43:28.363Z,19.30
2022-11-26T13:46:04.373Z,16.90
2022-11-26T13:48:41.274Z,15.17
2022-11-26T13:51:18.391Z,20.87
2022-11-26T13:53:51.038Z,15.27
2022-11-26T13:56:25.911Z,19.37
2022-11-26T13:58:57.072Z,17.20
2022-11-26T14:01:29.857Z,18.70
2022-11-26T14:03:58.744Z,18.00
2022-11-26T14:06:28.007Z,16.10
2022-11-26T14:08:57.797Z,16.20
2022-11-26T14:12:00.330Z,16.23
2022-11-26T14:14:33.397Z,13.80
2022-11-26T14:17:16.020Z,13.87
2022-11-26T14:20:04.557Z,14.53
2022-11-26T14:22:33.863Z,18.67
2022-11-26T14:25:03.909Z,13.00
2022-11-26T14:27:34.954Z,16.13
2022-11-26T14:30:21.339Z,15.93
2022-11-26T14:33:00.572Z,13.80
2022-11-26T14:35:34.369Z,16.10
2022-11-26T14:38:04.085Z,11.53
2022-11-26T14:40:34.077Z,13.57
2022-11-26T14:43:15.898Z,15.80
2022-11-26T14:45:44.888Z,15.53
2022-11-26T14:48:25.953Z,17.17
2022-11-26T14:50:55.148Z,12.37
2022-11-26T14:53:25.862Z,20.53
2022-11-26T14:55:54.347Z,13.60
2022-11-26T14:58:29.816Z,17.67
2022-11-26T15:01:06.631Z,12.53
2022-11-26T15:03:35.145Z,17.67
2022-11-26T15:06:03.255Z,15.83
2022-11-26T15:08:31.055Z,14.97
2022-11-26T15:11:02.481Z,11.43
2022-11-26T15:13:34.821Z,12.97
2022-11-26T15:16:05.329Z,12.37
2022-11-26T15:18:36.032Z,12.77
2022-11-26T15:21:06.491Z,17.67
2022-11-26T15:23:38.064Z,14.90
2022-11-26T15:26:06.939Z,12.70
2022-11-26T15:28:40.889Z,14.20
2022-11-26T15:31:09.380Z,13.10
2022-11-26T15:33:39.444Z,16.37
2022-11-26T15:36:14.214Z,14.87
2022-11-26T15:39:02.889Z,14.90
2022-11-26T15:41:31.468Z,13.40
2022-11-26T15:44:01.199Z,13.30
2022-11-26T15:46:31.776Z,11.57
2022-11-26T15:49:03.663Z,13.87
2022-11-26T15:51:36.009Z,21.20
2022-11-26T15:54:05.109Z,16.80
2022-11-26T15:56:35.847Z,16.33
2022-11-26T15:59:13.570Z,12.70
2022-11-26T16:01:45.526Z,12.23
2022-11-26T16:04:43.680Z,10.70
2022-11-26T16:07:13.828Z,12.60
2022-11-26T16:09:41.839Z,11.60
2022-11-26T16:12:30.592Z,13.60
2022-11-26T16:15:20.755Z,13.50
2022-11-26T16:17:49.911Z,13.13
2022-11-26T16:20:20.975Z,16.90
2022-11-26T16:22:52.988Z,12.90
2022-11-26T16:25:23.684Z,11.97
2022-11-26T16:28:05.498Z,11.60
2022-11-26T16:30:35.000Z,16.27
2022-11-26T16:33:03.014Z,9.77
2022-11-26T16:35:45.229Z,15.33
2022-11-26T16:38:20.152Z,13.10
2022-11-26T16:40:48.058Z,11.30
2022-11-26T16:43:16.180Z,15.17
2022-11-26T16:45:45.494Z,15.70
2022-11-26T16:48:21.727Z,13.47
2022-11-26T16:50:49.683Z,11.40
2022-11-26T16:53:17.471Z,11.87
2022-11-26T16:55:45.464Z,13.50
2022-11-26T16:58:23.564Z,17.50
2022-11-26T17:00:52.735Z,14.10
2022-11-26T17:03:22.571Z,12.03
2022-11-26T17:05:53.362Z,16.37
2022-11-26T17:08:21.266Z,11.13
2022-11-26T17:10:50.840Z,11.07
2022-11-26T17:13:20.384Z,13.27
2022-11-26T17:15:49.206Z,15.43
2022-11-26T17:18:21.184Z,12.33
2022-11-26T17:20:49.742Z,14.00
2022-11-26T17:23:17.883Z,11.67
2022-11-26T17:25:47.220Z,18.03
2022-11-26T17:28:15.867Z,10.20
2022-11-26T17:30:45.268Z,12.37
2022-11-26T17:33:13.215Z,13.10
2022-11-26T17:35:42.442Z,13.80
2022-11-26T17:38:15.773Z,14.57
2022-11-26T17:40:44.445Z,13.37
2022-11-26T17:43:12.315Z,13.87
2022-11-26T17:45:40.965Z,14.03
2022-11-26T17:48:12.745Z,18.63
2022-11-26T17:50:42.583Z,17.10
2022-11-26T17:53:10.441Z,15.80
2022-11-26T17:55:39.062Z,13.83
2022-11-26T17:58:06.844Z,18.27
2022-11-26T18:00:34.691Z,14.53
2022-11-26T18:03:02.575Z,15.47
2022-11-26T18:05:30.417Z,16.73
2022-11-26T18:07:59.674Z,12.83
2022-11-26T18:10:27.485Z,14.83
2022-11-26T18:12:55.897Z,14.63
2022-11-26T18:15:26.431Z,12.50
2022-11-26T18:17:56.279Z,18.20
2022-11-26T18:20:25.995Z,15.70
2022-11-26T18:22:56.239Z,13.80
2022-11-26T18:25:25.684Z,14.73
2022-11-26T18:27:53.936Z,12.77
2022-11-26T18:30:21.982Z,15.13
2022-11-26T18:32:49.800Z,11.33
2022-11-26T18:35:17.762Z,14.90
2022-11-26T18:37:45.561Z,16.37
2022-11-26T18:40:17.772Z,12.53
2022-11-26T18:42:46.949Z,18.40
2022-11-26T18:45:16.597Z,13.37
2022-11-26T18:47:44.570Z,16.27
2022-11-26T18:50:13.718Z,16.97
2022-11-26T18:52:41.463Z,12.63
2022-11-26T18:55:09.940Z,17.67
2022-11-26T18:57:37.823Z,14.20
2022-11-26T19:00:08.830Z,13.80
2022-11-26T19:02:37.108Z,14.30
2022-11-26T19:05:05.445Z,17.57
2022-11-26T19:07:33.796Z,16.93
2022-11-26T19:10:01.630Z,10.80
2022-11-26T19:12:30.319Z,15.53
2022-11-26T19:14:58.071Z,12.27
2022-11-26T19:17:27.262Z,14.63
2022-11-26T19:19:55.105Z,16.50
2022-11-26T19:22:22.905Z,17.83
2022-11-26T19:24:50.680Z,13.20
2022-11-26T19:27:18.539Z,12.60
2022-11-26T19:29:46.362Z,12.37
2022-11-26T19:32:14.133Z,18.03
2022-11-26T19:34:43.257Z,15.93
2022-11-26T19:37:11.053Z,18.60
2022-11-26T19:39:39.282Z,15.07
2022-11-26T19:42:07.372Z,19.97
2022-11-26T19:44:36.192Z,18.47
2022-11-26T19:47:04.543Z,14.43
2022-11-26T19:49:32.392Z,16.67
2022-11-26T19:52:01.631Z,18.97
2022-11-26T19:54:29.416Z,17.50
2022-11-26T19:56:57.231Z,17.30
2022-11-26T19:59:25.065Z,18.13
2022-11-26T20:01:55.560Z,18.73
2022-11-26T20:04:27.351Z,13.53
2022-11-26T20:06:55.218Z,15.80
2022-11-26T20:09:24.300Z,22.27
2022-11-26T20:11:52.075Z,11.77
2022-11-26T20:14:20.415Z,18.60
2022-11-26T20:16:48.267Z,17.47
2022-11-26T20:19:16.171Z,14.73
2022-11-26T20:21:44.031Z,13.77
2022-11-26T20:24:15.171Z,13.57
2022-11-26T20:26:47.101Z,15.53
2022-11-26T20:29:16.883Z,17.07
2022-11-26T20:31:46.359Z,15.73
2022-11-26T20:34:15.102Z,15.03
2022-11-26T20:36:43.277Z,17.63
2022-11-26T20:39:14.091Z,15.57
2022-11-26T20:41:41.880Z,13.97
2022-11-26T20:44:12.438Z,14.80
2022-11-26T20:46:41.064Z,15.03
2022-11-26T20:49:10.842Z,19.53
2022-11-26T20:51:38.639Z,15.90
2022-11-26T20:54:06.542Z,13.87
2022-11-26T20:56:34.540Z,12.97
2022-11-26T20:59:02.810Z,16.00
2022-11-26T21:01:32.490Z,16.07
2022-11-26T21:04:00.400Z,13.30
2022-11-26T21:06:31.397Z,16.20
2022-11-26T21:09:01.699Z,15.87
2022-11-26T21:11:30.360Z,15.00
2022-11-26T21:13:59.640Z,11.77
2022-11-26T21:16:27.554Z,16.37
2022-11-26T21:18:56.973Z,13.30
2022-11-26T21:21:26.254Z,13.30
2022-11-26T21:23:54.503Z,16.17
2022-11-26T21:26:24.004Z,16.93
2022-11-26T21:28:52.315Z,10.17
2022-11-26T21:31:21.239Z,14.90
2022-11-26T21:33:54.759Z,16.13
2022-11-26T21:36:24.517Z,13.70
2022-11-26T21:38:52.503Z,20.83
2022-11-26T21:41:20.783Z,11.80
2022-11-26T21:43:49.319Z,11.77
2022-11-26T21:46:18.862Z,13.07
2022-11-26T21:48:47.311Z,14.07
2022-11-26T21:51:17.822Z,13.10
2022-11-26T21:53:49.476Z,10.80
2022-11-26T21:56:19.657Z,19.70
2022-11-26T21:58:47.812Z,12.60
2022-11-26T22:01:18.707Z,10.47
2022-11-26T22:03:50.633Z,15.97
2022-11-26T22:06:20.389Z,16.83
2022-11-26T22:08:50.387Z,14.40
2022-11-26T22:11:19.970Z,18.30
2022-11-26T22:13:48.286Z,12.27
2022-11-26T22:16:18.247Z,12.90
2022-11-26T22:18:47.383Z,16.33
2022-11-26T22:21:17.153Z,16.93
2022-11-26T22:23:45.038Z,13.57
2022-11-26T22:26:14.272Z,16.30
2022-11-26T22:28:42.816Z,15.70
2022-11-26T22:31:12.691Z,12.77
2022-11-26T22:33:40.753Z,16.43
2022-11-26T22:36:09.661Z,15.50
2022-11-26T22:38:39.043Z,16.10
2022-11-26T22:41:08.344Z,14.77
2022-11-26T22:43:37.690Z,12.93
2022-11-26T22:46:05.738Z,14.23
2022-11-26T22:48:34.426Z,13.57
2022-11-26T22:51:02.568Z,14.20
2022-11-26T22:53:31.333Z,15.67
2022-11-26T22:56:00.464Z,12.10
2022-11-26T22:58:28.906Z,16.63
2022-11-26T23:01:00.343Z,12.23
2022-11-26T23:03:29.931Z,11.57
2022-11-26T23:06:02.137Z,15.67
2022-11-26T23:08:30.052Z,11.00
2022-11-26T23:10:57.974Z,13.70
2022-11-26T23:13:25.812Z,13.97
2022-11-26T23:15:53.657Z,13.77
2022-11-26T23:18:22.775Z,10.07
2022-11-26T23:20:50.573Z,11.30
2022-11-26T23:23:18.437Z,13.80
2022-11-26T23:25:46.239Z,15.07
2022-11-26T23:28:14.064Z,14.30
2022-11-26T23:30:41.822Z,11.40
2022-11-26T23:33:09.915Z,11.77
2022-11-26T23:35:39.074Z,12.77
2022-11-26T23:38:06.967Z,15.00
2022-11-26T23:40:34.773Z,13.43
2022-11-26T23:43:07.319Z,13.90
2022-11-26T23:45:36.509Z,12.17
2022-11-26T23:48:04.373Z,15.00
2022-11-26T23:50:32.134Z,11.53
2022-11-26T23:53:01.234Z,12.50
2022-11-26T23:55:29.134Z,11.87
2022-11-26T23:57:56.938Z,12.43
